createdAt,value
2019-03-06T00:00:40.230Z,6.47
2019-03-06T00:03:06.626Z,6.00
2019-03-06T00:05:32.790Z,5.97
2019-03-06T00:07:58.962Z,6.53
2019-03-06T00:10:27.557Z,5.63
2019-03-06T00:12:53.734Z,6.10
2019-03-06T00:15:19.899Z,6.73
2019-03-06T00:17:46.102Z,6.50
2019-03-06T00:20:12.266Z,6.67
2019-03-06T00:22:38.411Z,7.07
2019-03-06T00:25:05.510Z,7.33
2019-03-06T00:27:31.682Z,6.67
2019-03-06T00:29:58.374Z,6.33
2019-03-06T00:32:24.572Z,6.60
2019-03-06T00:34:51.837Z,6.10
2019-03-06T00:37:18.008Z,6.53
2019-03-06T00:39:46.115Z,6.20
2019-03-06T00:42:12.387Z,6.93
2019-03-06T00:44:39.530Z,6.13
2019-03-06T00:47:05.724Z,5.63
2019-03-06T00:49:31.889Z,6.03
2019-03-06T00:51:58.055Z,5.90
2019-03-06T00:54:24.247Z,5.83
2019-03-06T00:56:50.418Z,6.13
2019-03-06T00:59:16.586Z,5.20
2019-03-06T01:01:42.881Z,5.60
2019-03-06T01:04:09.054Z,5.50
2019-03-06T01:06:35.221Z,6.07
2019-03-06T01:09:01.417Z,5.97
2019-03-06T01:11:27.581Z,6.00
2019-03-06T01:13:53.750Z,6.07
2019-03-06T01:16:19.947Z,6.17
2019-03-06T01:18:46.119Z,5.60
2019-03-06T01:21:12.387Z,5.67
2019-03-06T01:23:38.585Z,5.77
2019-03-06T01:26:04.751Z,5.73
2019-03-06T01:28:31.021Z,6.30
2019-03-06T01:30:57.211Z,5.20
2019-03-06T01:33:25.342Z,6.20
2019-03-06T01:35:53.612Z,6.43
2019-03-06T01:38:38.313Z,6.13
2019-03-06T01:41:08.924Z,6.30
2019-03-06T01:43:52.095Z,6.73
2019-03-06T01:46:18.400Z,6.20
2019-03-06T01:48:44.562Z,5.43
2019-03-06T01:51:11.727Z,2.50
2019-03-06T01:53:38.127Z,4.30
2019-03-06T01:56:04.391Z,5.17
2019-03-06T01:58:30.688Z,4.70
2019-03-06T02:00:56.952Z,4.83
2019-03-06T02:03:23.119Z,5.00
2019-03-06T02:05:49.344Z,4.70
2019-03-06T02:08:15.621Z,4.30
2019-03-06T02:10:41.875Z,4.97
2019-03-06T02:13:08.065Z,4.67
2019-03-06T02:15:34.327Z,4.60
2019-03-06T02:18:00.502Z,4.87
2019-03-06T02:20:26.788Z,4.93
2019-03-06T02:22:52.952Z,4.70
2019-03-06T02:25:19.115Z,4.60
2019-03-06T02:27:45.332Z,4.63
2019-03-06T02:30:17.370Z,4.80
2019-03-06T02:32:43.537Z,4.50
2019-03-06T02:35:09.731Z,4.87
2019-03-06T02:37:35.894Z,4.90
2019-03-06T02:40:03.872Z,4.53
2019-03-06T02:42:30.079Z,4.60
2019-03-06T02:44:56.334Z,4.90
2019-03-06T02:47:22.553Z,4.73
2019-03-06T02:49:48.766Z,4.17
2019-03-06T02:52:14.934Z,4.23
2019-03-06T02:54:41.198Z,4.50
2019-03-06T02:57:07.899Z,4.37
2019-03-06T02:59:35.973Z,4.53
2019-03-06T03:02:04.033Z,4.90
2019-03-06T03:04:32.134Z,3.90
2019-03-06T03:07:00.199Z,4.77
2019-03-06T03:09:26.373Z,4.40
2019-03-06T03:11:53.075Z,4.17
2019-03-06T03:14:19.234Z,4.00
2019-03-06T03:16:45.394Z,4.40
2019-03-06T03:19:12.025Z,4.33
2019-03-06T03:21:38.189Z,3.83
2019-03-06T03:24:04.373Z,3.97
2019-03-06T03:26:30.669Z,3.57
2019-03-06T03:28:56.836Z,3.73
2019-03-06T03:31:23.334Z,4.17
2019-03-06T03:33:49.580Z,3.97
2019-03-06T03:36:15.794Z,4.20
2019-03-06T03:38:41.961Z,4.43
2019-03-06T03:41:08.157Z,4.27
2019-03-06T03:43:34.539Z,3.83
2019-03-06T03:46:00.685Z,4.37
2019-03-06T03:48:26.991Z,4.17
2019-03-06T03:50:53.154Z,3.90
2019-03-06T03:53:19.310Z,6.53
2019-03-06T03:55:45.516Z,4.23
2019-03-06T03:58:11.681Z,4.23
2019-03-06T04:00:37.844Z,4.00
2019-03-06T04:03:04.143Z,3.83
2019-03-06T04:05:30.308Z,4.57
2019-03-06T04:07:56.475Z,3.30
2019-03-06T04:10:22.676Z,3.53
2019-03-06T04:12:48.837Z,3.77
2019-03-06T04:15:17.092Z,3.90
2019-03-06T04:17:43.398Z,4.20
2019-03-06T04:20:12.359Z,4.53
2019-03-06T04:22:38.637Z,3.43
2019-03-06T04:25:05.829Z,4.83
2019-03-06T04:27:32.085Z,5.33
2019-03-06T04:29:58.355Z,4.40
2019-03-06T04:32:24.541Z,4.07
2019-03-06T04:34:50.807Z,4.10
2019-03-06T04:37:17.069Z,3.27
2019-03-06T04:39:43.276Z,4.07
2019-03-06T04:42:09.442Z,3.40
2019-03-06T04:44:35.604Z,3.53
2019-03-06T04:47:02.003Z,3.33
2019-03-06T04:49:28.322Z,4.10
2019-03-06T04:51:54.598Z,4.30
2019-03-06T04:54:20.797Z,3.73
2019-03-06T04:56:46.962Z,3.70
2019-03-06T04:59:13.118Z,3.63
2019-03-06T05:01:39.515Z,3.47
2019-03-06T05:04:05.789Z,3.27
2019-03-06T05:06:32.064Z,3.20
2019-03-06T05:08:58.460Z,2.80
2019-03-06T05:11:24.639Z,2.53
2019-03-06T05:13:50.800Z,4.10
2019-03-06T05:16:16.988Z,6.13
2019-03-06T05:18:51.058Z,5.13
2019-03-06T05:21:17.212Z,5.80
2019-03-06T05:23:43.409Z,3.30
2019-03-06T05:26:09.584Z,3.10
2019-03-06T05:28:35.738Z,3.20
2019-03-06T05:31:01.936Z,3.33
2019-03-06T05:33:28.782Z,3.97
2019-03-06T05:36:04.882Z,4.20
2019-03-06T05:38:34.745Z,6.50
2019-03-06T05:41:00.908Z,13.13
2019-03-06T05:43:27.602Z,12.20
2019-03-06T05:45:53.759Z,9.33
2019-03-06T05:48:19.925Z,8.47
2019-03-06T05:50:46.317Z,8.40
2019-03-06T05:53:12.480Z,6.70
2019-03-06T05:55:38.651Z,5.50
2019-03-06T05:58:04.841Z,4.87
2019-03-06T06:00:31.126Z,4.63
2019-03-06T06:02:57.396Z,4.40
2019-03-06T06:05:23.707Z,5.40
2019-03-06T06:07:49.865Z,4.87
2019-03-06T06:10:16.146Z,5.13
2019-03-06T06:12:42.334Z,5.40
2019-03-06T06:15:13.298Z,5.10
2019-03-06T06:17:39.449Z,5.00
2019-03-06T06:20:08.640Z,5.77
2019-03-06T06:22:36.699Z,6.53
2019-03-06T06:25:03.561Z,5.90
2019-03-06T06:27:29.960Z,15.77
2019-03-06T06:29:56.129Z,13.77
2019-03-06T06:32:22.694Z,7.03
2019-03-06T06:34:48.888Z,7.83
2019-03-06T06:37:15.051Z,8.00
2019-03-06T06:39:41.222Z,17.93
2019-03-06T06:42:07.910Z,11.83
2019-03-06T06:44:34.072Z,9.00
2019-03-06T06:47:00.246Z,7.33
2019-03-06T06:49:26.467Z,12.00
2019-03-06T06:52:04.979Z,15.60
2019-03-06T06:54:38.046Z,7.60
2019-03-06T06:57:22.802Z,5.53
2019-03-06T06:59:58.667Z,4.90
2019-03-06T07:02:42.591Z,7.50
2019-03-06T07:05:15.764Z,7.97
2019-03-06T07:08:00.155Z,7.87
2019-03-06T07:10:30.829Z,12.77
2019-03-06T07:13:13.753Z,9.70
2019-03-06T07:15:44.675Z,9.50
2019-03-06T07:18:12.739Z,8.17
2019-03-06T07:20:55.884Z,4.40
2019-03-06T07:23:32.951Z,5.63
2019-03-06T07:26:03.902Z,2.97
2019-03-06T07:28:40.713Z,2.60
2019-03-06T07:31:26.860Z,2.83
2019-03-06T07:33:55.031Z,3.47
2019-03-06T07:36:39.401Z,2.87
2019-03-06T07:39:08.851Z,2.80
2019-03-06T07:41:37.931Z,3.10
2019-03-06T07:44:29.919Z,4.10
2019-03-06T07:47:09.518Z,5.23
2019-03-06T07:49:55.773Z,3.10
2019-03-06T07:52:26.427Z,3.37
2019-03-06T07:55:10.903Z,3.33
2019-03-06T07:58:14.476Z,4.57
2019-03-06T08:00:40.772Z,4.37
2019-03-06T08:03:06.937Z,3.70
2019-03-06T08:05:33.112Z,3.90
2019-03-06T08:07:59.299Z,4.67
2019-03-06T08:10:27.388Z,4.73
2019-03-06T08:12:55.439Z,5.57
2019-03-06T08:15:32.245Z,3.83
2019-03-06T08:18:16.786Z,4.00
2019-03-06T08:20:44.881Z,4.60
2019-03-06T08:23:15.721Z,3.87
2019-03-06T08:25:45.133Z,4.27
2019-03-06T08:28:12.223Z,4.00
2019-03-06T08:30:43.424Z,3.43
2019-03-06T08:33:17.957Z,2.30
2019-03-06T08:35:37.817Z,2.00
2019-03-06T08:38:03.981Z,2.23
2019-03-06T08:40:30.136Z,2.00
2019-03-06T08:42:59.577Z,2.10
2019-03-06T08:45:30.583Z,2.03
2019-03-06T08:48:10.682Z,1.70
2019-03-06T08:50:41.995Z,1.60
2019-03-06T08:53:10.104Z,1.77
2019-03-06T08:55:43.844Z,1.97
2019-03-06T08:58:18.307Z,1.47
2019-03-06T09:00:54.169Z,1.80
2019-03-06T09:03:24.728Z,2.30
2019-03-06T09:06:09.698Z,2.33
2019-03-06T09:08:54.878Z,2.13
2019-03-06T09:11:22.978Z,1.70
2019-03-06T09:13:53.792Z,2.00
2019-03-06T09:16:33.940Z,1.93
2019-03-06T09:19:16.940Z,1.47
2019-03-06T09:21:47.547Z,1.93
2019-03-06T09:24:18.691Z,1.80
2019-03-06T09:26:46.762Z,1.70
2019-03-06T09:29:26.781Z,1.90
2019-03-06T09:31:55.195Z,2.07
2019-03-06T09:34:32.389Z,1.93
2019-03-06T09:37:16.982Z,2.30
2019-03-06T09:39:47.623Z,2.07
2019-03-06T09:42:30.958Z,1.70
2019-03-06T09:45:01.572Z,1.93
2019-03-06T09:47:35.417Z,1.67
2019-03-06T09:50:06.162Z,2.20
2019-03-06T09:52:36.029Z,2.53
2019-03-06T09:55:13.553Z,1.97
2019-03-06T09:57:57.972Z,2.00
2019-03-06T10:00:44.038Z,2.47
2019-03-06T10:03:12.131Z,1.63
2019-03-06T10:05:40.195Z,1.90
2019-03-06T10:08:13.897Z,2.20
2019-03-06T10:10:58.585Z,2.10
2019-03-06T10:13:42.128Z,2.40
2019-03-06T10:16:20.082Z,2.30
2019-03-06T10:18:54.054Z,2.53
2019-03-06T10:21:20.224Z,2.33
2019-03-06T10:23:46.379Z,2.17
2019-03-06T10:26:12.571Z,2.37
2019-03-06T10:28:38.735Z,2.50
2019-03-06T10:31:05.401Z,2.13
2019-03-06T10:33:31.595Z,2.80
2019-03-06T10:35:58.192Z,2.10
2019-03-06T10:38:24.576Z,2.13
2019-03-06T10:40:50.760Z,2.95
2019-03-06T10:43:17.049Z,3.20
2019-03-06T10:45:43.211Z,2.93
2019-03-06T10:48:09.511Z,2.93
2019-03-06T10:50:35.775Z,1.80
2019-03-06T10:53:01.942Z,3.10
2019-03-06T10:55:28.413Z,2.53
2019-03-06T10:57:54.771Z,1.60
2019-03-06T11:00:31.485Z,2.70
2019-03-06T11:02:57.839Z,2.33
2019-03-06T11:05:28.675Z,2.40
2019-03-06T11:07:55.566Z,2.40
2019-03-06T11:10:25.218Z,2.27
2019-03-06T11:12:50.210Z,1.80
2019-03-06T11:15:18.730Z,2.03
2019-03-06T11:17:45.263Z,2.50
2019-03-06T11:20:15.529Z,1.93
2019-03-06T11:22:41.744Z,1.50
2019-03-06T11:25:11.608Z,2.57
2019-03-06T11:27:37.785Z,2.37
2019-03-06T11:30:10.658Z,2.23
2019-03-06T11:32:36.816Z,2.20
2019-03-06T11:35:06.378Z,2.17
2019-03-06T11:37:32.569Z,1.97
2019-03-06T11:39:58.724Z,2.30
2019-03-06T11:42:24.879Z,2.20
2019-03-06T11:44:51.106Z,1.90
2019-03-06T11:47:17.751Z,2.03
2019-03-06T11:49:44.023Z,1.77
2019-03-06T11:52:10.211Z,2.90
2019-03-06T11:54:36.370Z,2.37
2019-03-06T11:57:03.087Z,2.30
2019-03-06T11:59:29.281Z,2.50
2019-03-06T12:01:55.535Z,2.57
2019-03-06T12:04:21.997Z,3.00
2019-03-06T12:06:48.190Z,2.60
2019-03-06T12:09:25.343Z,2.83
2019-03-06T12:11:51.536Z,2.90
2019-03-06T12:14:17.805Z,2.27
2019-03-06T12:16:43.960Z,2.90
2019-03-06T12:19:10.812Z,2.13
2019-03-06T12:21:36.984Z,3.20
2019-03-06T12:24:03.136Z,3.50
2019-03-06T12:26:29.442Z,2.47
2019-03-06T12:28:55.595Z,3.33
2019-03-06T12:31:21.891Z,3.73
2019-03-06T12:33:48.076Z,3.33
2019-03-06T12:36:14.570Z,2.83
2019-03-06T12:38:40.731Z,3.50
2019-03-06T12:41:06.923Z,3.03
2019-03-06T12:43:33.281Z,3.30
2019-03-06T12:46:23.386Z,3.57
2019-03-06T12:48:48.091Z,4.00
2019-03-06T12:51:14.346Z,2.70
2019-03-06T12:53:40.941Z,3.00
2019-03-06T12:56:07.102Z,2.10
2019-03-06T12:58:33.273Z,2.77
2019-03-06T13:00:59.509Z,2.47
2019-03-06T13:03:25.656Z,2.20
2019-03-06T13:05:51.814Z,2.37
2019-03-06T13:08:19.907Z,2.23
2019-03-06T13:10:46.069Z,2.33
2019-03-06T13:13:12.527Z,2.23
2019-03-06T13:15:38.716Z,2.10
2019-03-06T13:18:04.972Z,2.30
2019-03-06T13:20:31.124Z,2.07
2019-03-06T13:22:57.420Z,2.00
2019-03-06T13:25:24.190Z,1.57
2019-03-06T13:27:54.815Z,1.83
2019-03-06T13:30:21.874Z,2.47
2019-03-06T13:32:55.739Z,2.60
2019-03-06T13:35:22.095Z,2.57
2019-03-06T13:37:51.110Z,2.77
2019-03-06T13:40:18.762Z,2.03
2019-03-06T13:42:45.324Z,2.43
2019-03-06T13:45:13.823Z,1.70
2019-03-06T13:47:40.083Z,2.03
2019-03-06T13:50:08.546Z,2.27
2019-03-06T13:52:34.864Z,1.53
2019-03-06T13:55:01.022Z,2.20
2019-03-06T13:57:27.188Z,2.37
2019-03-06T13:59:53.432Z,2.10
2019-03-06T14:02:19.803Z,2.60
2019-03-06T14:04:46.364Z,1.70
2019-03-06T14:07:12.647Z,2.20
2019-03-06T14:09:38.812Z,1.77
2019-03-06T14:12:05.073Z,2.33
2019-03-06T14:14:31.272Z,3.00
2019-03-06T14:16:57.531Z,2.20
2019-03-06T14:19:27.571Z,2.50
2019-03-06T14:21:53.976Z,2.77
2019-03-06T14:24:20.416Z,3.50
2019-03-06T14:26:46.570Z,2.63
2019-03-06T14:29:12.769Z,2.87
2019-03-06T14:31:38.929Z,4.47
2019-03-06T14:34:06.371Z,5.07
2019-03-06T14:36:32.530Z,4.73
2019-03-06T14:38:58.696Z,5.93
2019-03-06T14:41:24.857Z,3.90
2019-03-06T14:43:51.053Z,4.07
2019-03-06T14:46:17.326Z,5.30
2019-03-06T14:48:43.490Z,3.00
2019-03-06T14:51:09.786Z,3.97
2019-03-06T14:53:35.946Z,3.73
2019-03-06T14:56:02.106Z,4.43
2019-03-06T14:58:28.413Z,5.33
2019-03-06T15:00:54.920Z,6.07
2019-03-06T15:03:21.181Z,9.43
2019-03-06T15:05:47.585Z,5.50
2019-03-06T15:08:13.853Z,7.27
2019-03-06T15:10:42.922Z,6.80
2019-03-06T15:13:08.133Z,7.53
2019-03-06T15:15:34.283Z,7.07
2019-03-06T15:18:00.445Z,6.00
2019-03-06T15:20:28.659Z,6.80
2019-03-06T15:22:56.113Z,7.40
2019-03-06T15:25:23.876Z,6.27
2019-03-06T15:27:50.172Z,5.77
2019-03-06T15:30:17.703Z,6.23
2019-03-06T15:32:44.001Z,7.20
2019-03-06T15:35:11.208Z,11.03
2019-03-06T15:37:38.068Z,5.73
2019-03-06T15:40:10.082Z,7.43
2019-03-06T15:42:36.379Z,6.70
2019-03-06T15:45:04.236Z,8.47
2019-03-06T15:47:33.680Z,9.67
2019-03-06T15:49:58.633Z,10.07
2019-03-06T15:52:25.439Z,5.17
2019-03-06T15:54:52.769Z,9.00
2019-03-06T15:57:19.382Z,7.97
2019-03-06T15:59:45.553Z,6.33
2019-03-06T16:02:11.955Z,8.37
2019-03-06T16:04:38.161Z,6.03
2019-03-06T16:07:04.436Z,8.50
2019-03-06T16:09:31.108Z,7.13
2019-03-06T16:11:57.296Z,7.07
2019-03-06T16:14:23.463Z,7.50
2019-03-06T16:16:49.664Z,8.70
2019-03-06T16:19:15.974Z,7.77
2019-03-06T16:21:42.130Z,6.30
2019-03-06T16:24:09.801Z,8.50
2019-03-06T16:26:36.183Z,9.07
2019-03-06T16:29:02.840Z,7.13
2019-03-06T16:31:29.100Z,7.50
2019-03-06T16:33:55.400Z,9.83
2019-03-06T16:36:21.559Z,7.90
2019-03-06T16:38:47.722Z,9.03
2019-03-06T16:41:14.006Z,9.87
2019-03-06T16:43:40.158Z,6.73
2019-03-06T16:46:06.415Z,7.20
2019-03-06T16:48:32.612Z,6.13
2019-03-06T16:50:58.976Z,6.87
2019-03-06T16:53:25.133Z,5.20
2019-03-06T16:55:51.328Z,7.37
2019-03-06T16:58:17.482Z,8.83
2019-03-06T17:00:44.058Z,10.37
2019-03-06T17:03:10.377Z,8.40
2019-03-06T17:05:37.427Z,11.60
2019-03-06T17:08:04.304Z,10.33
2019-03-06T17:10:31.993Z,5.33
2019-03-06T17:12:58.247Z,9.67
2019-03-06T17:15:25.719Z,9.17
2019-03-06T17:17:52.511Z,10.10
2019-03-06T17:20:21.378Z,10.30
2019-03-06T17:22:48.259Z,9.70
2019-03-06T17:25:14.925Z,10.03
2019-03-06T17:27:41.188Z,12.87
2019-03-06T17:30:13.630Z,12.87
2019-03-06T17:32:55.795Z,14.00
2019-03-06T17:35:23.555Z,10.80
2019-03-06T17:37:50.011Z,11.97
2019-03-06T17:40:16.199Z,12.20
2019-03-06T17:42:42.352Z,11.83
2019-03-06T17:45:09.181Z,7.50
2019-03-06T17:47:35.506Z,11.27
2019-03-06T17:50:01.665Z,12.93
2019-03-06T17:52:27.815Z,12.00
2019-03-06T17:54:54.225Z,10.13
2019-03-06T17:57:20.389Z,13.07
2019-03-06T17:59:46.647Z,8.63
2019-03-06T18:02:12.946Z,9.33
2019-03-06T18:04:39.212Z,11.57
2019-03-06T18:07:06.138Z,9.63
2019-03-06T18:09:32.563Z,16.10
2019-03-06T18:11:59.218Z,13.90
2019-03-06T18:14:25.379Z,6.77
2019-03-06T18:16:51.663Z,10.73
2019-03-06T18:19:17.932Z,7.57
2019-03-06T18:21:44.087Z,12.30
2019-03-06T18:24:10.279Z,11.37
2019-03-06T18:26:36.553Z,15.93
2019-03-06T18:29:02.632Z,37.23
2019-03-06T18:31:29.352Z,25.13
2019-03-06T18:33:55.605Z,21.00
2019-03-06T18:36:21.767Z,19.57
2019-03-06T18:38:48.459Z,14.50
2019-03-06T18:41:14.632Z,14.03
2019-03-06T18:43:40.787Z,13.47
2019-03-06T18:46:07.083Z,18.60
2019-03-06T18:48:33.246Z,22.20
2019-03-06T18:50:59.403Z,11.67
2019-03-06T18:53:25.764Z,10.40
2019-03-06T18:55:51.978Z,17.57
2019-03-06T18:58:18.140Z,13.00
2019-03-06T19:00:44.338Z,12.50
2019-03-06T19:03:10.510Z,14.03
2019-03-06T19:05:37.065Z,40.50
2019-03-06T19:08:03.522Z,34.63
2019-03-06T19:10:29.696Z,9.57
2019-03-06T19:12:55.851Z,38.70
2019-03-06T19:15:24.642Z,39.57
2019-03-06T19:17:50.796Z,30.53
2019-03-06T19:20:18.746Z,25.50
2019-03-06T19:22:45.670Z,14.83
2019-03-06T19:25:12.225Z,9.57
2019-03-06T19:27:38.400Z,10.50
2019-03-06T19:30:17.559Z,10.20
2019-03-06T19:32:44.122Z,7.97
2019-03-06T19:35:10.398Z,9.03
2019-03-06T19:37:36.587Z,8.53
2019-03-06T19:40:05.451Z,15.60
2019-03-06T19:42:31.618Z,19.23
2019-03-06T19:44:58.216Z,15.43
2019-03-06T19:47:24.376Z,13.93
2019-03-06T19:49:50.537Z,13.67
2019-03-06T19:52:16.737Z,13.30
2019-03-06T19:54:42.891Z,15.10
2019-03-06T19:57:09.066Z,19.63
2019-03-06T19:59:35.264Z,17.40
2019-03-06T20:02:01.417Z,24.47
2019-03-06T20:04:27.597Z,17.73
2019-03-06T20:06:54.360Z,14.00
2019-03-06T20:09:25.250Z,16.67
2019-03-06T20:11:51.896Z,16.40
2019-03-06T20:14:18.345Z,16.20
2019-03-06T20:16:44.497Z,15.77
2019-03-06T20:19:10.668Z,15.83
2019-03-06T20:21:36.883Z,14.77
2019-03-06T20:24:03.644Z,13.77
2019-03-06T20:26:29.806Z,17.20
2019-03-06T20:28:56.018Z,16.70
2019-03-06T20:31:22.177Z,17.03
2019-03-06T20:33:48.345Z,17.57
2019-03-06T20:36:14.554Z,16.07
2019-03-06T20:38:40.824Z,13.50
2019-03-06T20:41:06.978Z,14.20
2019-03-06T20:43:33.173Z,14.03
2019-03-06T20:45:59.836Z,15.20
2019-03-06T20:48:26.136Z,22.00
2019-03-06T20:50:52.338Z,18.27
2019-03-06T20:53:18.494Z,13.43
2019-03-06T20:55:44.653Z,13.23
2019-03-06T20:58:10.847Z,11.97
2019-03-06T21:00:37.013Z,21.27
2019-03-06T21:03:03.178Z,10.90
2019-03-06T21:05:29.367Z,14.07
2019-03-06T21:07:55.583Z,12.53
2019-03-06T21:10:21.744Z,13.17
2019-03-06T21:12:47.938Z,15.13
2019-03-06T21:15:17.701Z,16.83
2019-03-06T21:17:43.862Z,19.27
2019-03-06T21:20:15.508Z,17.40
2019-03-06T21:22:41.779Z,15.67
2019-03-06T21:25:10.848Z,14.73
2019-03-06T21:27:37.052Z,15.30
2019-03-06T21:30:07.025Z,13.90
2019-03-06T21:32:33.193Z,11.07
2019-03-06T21:34:59.391Z,13.17
2019-03-06T21:37:25.562Z,12.67
2019-03-06T21:39:51.953Z,13.70
2019-03-06T21:42:18.151Z,13.33
2019-03-06T21:44:44.307Z,14.47
2019-03-06T21:47:10.470Z,19.60
2019-03-06T21:49:36.667Z,18.23
2019-03-06T21:52:03.127Z,9.73
2019-03-06T21:54:29.303Z,7.03
2019-03-06T21:56:55.503Z,28.17
2019-03-06T21:59:22.574Z,13.83
2019-03-06T22:01:48.738Z,19.70
2019-03-06T22:04:15.038Z,24.27
2019-03-06T22:06:42.619Z,9.73
2019-03-06T22:09:11.229Z,13.27
2019-03-06T22:11:37.439Z,13.97
2019-03-06T22:14:03.613Z,10.27
2019-03-06T22:16:29.777Z,8.73
2019-03-06T22:18:55.983Z,12.63
2019-03-06T22:21:22.152Z,11.53
2019-03-06T22:23:48.308Z,16.40
2019-03-06T22:26:14.504Z,7.97
2019-03-06T22:28:40.976Z,9.70
2019-03-06T22:31:07.147Z,10.73
2019-03-06T22:33:33.340Z,15.13
2019-03-06T22:35:59.495Z,11.93
2019-03-06T22:38:25.653Z,13.87
2019-03-06T22:40:51.850Z,12.97
2019-03-06T22:43:18.013Z,11.27
2019-03-06T22:45:44.180Z,8.63
2019-03-06T22:48:10.393Z,9.67
2019-03-06T22:50:36.552Z,6.53
2019-03-06T22:53:02.711Z,6.60
2019-03-06T22:55:28.911Z,8.23
2019-03-06T22:57:55.074Z,15.70
2019-03-06T23:00:31.860Z,10.37
2019-03-06T23:02:58.333Z,8.10
2019-03-06T23:05:30.849Z,14.53
2019-03-06T23:07:57.139Z,14.03
2019-03-06T23:10:23.321Z,6.73
2019-03-06T23:12:49.484Z,6.00
2019-03-06T23:15:15.683Z,5.60
2019-03-06T23:17:41.852Z,6.87
2019-03-06T23:20:08.016Z,9.50
2019-03-06T23:22:34.207Z,6.40
2019-03-06T23:25:00.359Z,6.37
2019-03-06T23:27:26.625Z,7.23
2019-03-06T23:29:52.820Z,6.10
2019-03-06T23:32:18.974Z,6.03
2019-03-06T23:34:45.239Z,6.93
2019-03-06T23:37:11.433Z,6.10
2019-03-06T23:39:37.787Z,4.93
2019-03-06T23:42:04.750Z,4.70
2019-03-06T23:44:30.947Z,4.50
2019-03-06T23:46:57.096Z,4.60
2019-03-06T23:49:23.251Z,5.00
2019-03-06T23:51:51.352Z,5.53
2019-03-06T23:54:19.395Z,5.40
2019-03-06T23:56:45.570Z,5.00
2019-03-06T23:59:11.759Z,4.60
